createdAt,value
2023-04-14T00:00:20.143Z,100288.44
2023-04-14T00:00:41.827Z,100291.09
2023-04-14T00:01:03.526Z,100236.56
2023-04-14T00:01:27.388Z,100290.28
2023-04-14T00:01:50.100Z,100287.72
2023-04-14T00:02:11.772Z,100289.34
2023-04-14T00:02:35.496Z,100292.81
2023-04-14T00:02:57.400Z,100291.09
2023-04-14T00:03:20.502Z,100284.25
2023-04-14T00:03:42.414Z,100287.50
2023-04-14T00:04:04.423Z,100289.03
2023-04-14T00:04:26.734Z,100290.75
2023-04-14T00:04:52.998Z,100289.81
2023-04-14T00:05:14.875Z,100289.91
2023-04-14T00:05:36.608Z,100287.34
2023-04-14T00:05:59.215Z,100290.06
2023-04-14T00:06:20.866Z,100287.34
2023-04-14T00:06:42.731Z,100291.34
2023-04-14T00:07:04.369Z,100287.03
2023-04-14T00:07:26.024Z,100280.59
2023-04-14T00:07:47.669Z,100286.84
2023-04-14T00:08:10.333Z,100287.63
2023-04-14T00:08:31.944Z,100285.81
2023-04-14T00:08:53.572Z,100292.94
2023-04-14T00:09:15.343Z,100287.72
2023-04-14T00:09:37.928Z,100287.63
2023-04-14T00:09:59.576Z,100282.31
2023-04-14T00:10:21.550Z,100293.75
2023-04-14T00:10:45.230Z,100286.75
2023-04-14T00:11:07.784Z,100285.97
2023-04-14T00:11:29.405Z,100289.41
2023-04-14T00:11:51.499Z,100290.44
2023-04-14T00:12:14.345Z,100285.09
2023-04-14T00:12:37.977Z,100286.03
2023-04-14T00:13:01.671Z,100286.22
2023-04-14T00:13:25.029Z,100219.28
2023-04-14T00:13:46.774Z,100239.56
2023-04-14T00:14:10.040Z,100270.81
2023-04-14T00:14:34.008Z,100289.75
2023-04-14T00:14:56.113Z,100234.31
2023-04-14T00:15:19.358Z,100292.38
2023-04-14T00:15:42.289Z,100288.75
2023-04-14T00:16:04.838Z,100276.59
2023-04-14T00:16:28.694Z,100269.75
2023-04-14T00:16:50.530Z,100284.66
2023-04-14T00:17:13.474Z,100282.66
2023-04-14T00:17:40.133Z,100282.78
2023-04-14T00:18:06.661Z,100286.97
2023-04-14T00:18:29.826Z,100276.66
2023-04-14T00:18:55.323Z,100266.47
2023-04-14T00:19:17.266Z,100295.09
2023-04-14T00:19:40.992Z,100243.25
2023-04-14T00:20:04.523Z,100297.03
2023-04-14T00:20:27.870Z,100299.59
2023-04-14T00:20:50.410Z,100279.59
2023-04-14T00:21:14.200Z,100291.91
2023-04-14T00:21:36.242Z,100295.28
2023-04-14T00:22:03.807Z,100280.78
2023-04-14T00:23:18.720Z,100302.53
2023-04-14T00:23:41.681Z,100307.00
2023-04-14T00:24:03.554Z,100303.47
2023-04-14T00:24:25.427Z,100301.66
2023-04-14T00:24:47.087Z,100302.59
2023-04-14T00:25:09.330Z,100308.78
2023-04-14T00:25:31.921Z,100295.78
2023-04-14T00:25:54.226Z,100307.91
2023-04-14T00:26:16.017Z,100309.75
2023-04-14T00:26:39.408Z,100304.44
2023-04-14T00:27:02.044Z,100306.22
2023-04-14T00:27:23.892Z,100307.09
2023-04-14T00:27:45.543Z,100299.13
2023-04-14T00:28:07.322Z,100309.75
2023-04-14T00:29:04.478Z,100308.06
2023-04-14T00:29:26.227Z,100305.44
2023-04-14T00:29:48.352Z,100298.41
2023-04-14T00:30:10.801Z,100307.28
2023-04-14T00:30:34.709Z,100302.84
2023-04-14T00:30:57.382Z,100303.66
2023-04-14T00:31:19.430Z,100304.63
2023-04-14T00:31:41.171Z,100303.78
2023-04-14T00:32:03.830Z,100311.69
2023-04-14T00:32:26.916Z,100311.69
2023-04-14T00:32:48.603Z,100306.38
2023-04-14T00:33:11.008Z,100316.19
2023-04-14T00:33:33.725Z,100311.03
2023-04-14T00:33:56.661Z,100312.91
2023-04-14T00:34:18.323Z,100314.59
2023-04-14T00:34:39.981Z,100312.09
2023-04-14T00:35:04.332Z,100316.41
2023-04-14T00:35:26.066Z,100315.56
2023-04-14T00:35:48.098Z,100310.28
2023-04-14T00:36:09.843Z,100311.94
2023-04-14T00:36:32.149Z,100316.41
2023-04-14T00:36:54.950Z,100316.34
2023-04-14T00:37:17.395Z,100306.56
2023-04-14T00:37:39.049Z,100308.41
2023-04-14T00:38:00.670Z,100312.09
2023-04-14T00:38:25.807Z,100312.03
2023-04-14T00:38:48.749Z,100305.84
2023-04-14T00:39:10.410Z,100313.81
2023-04-14T00:39:32.080Z,100313.00
2023-04-14T00:39:56.024Z,100312.09
2023-04-14T00:40:18.067Z,100316.53
2023-04-14T00:40:40.839Z,100305.09
2023-04-14T00:41:02.556Z,100313.94
2023-04-14T00:41:25.738Z,100315.66
2023-04-14T00:41:47.417Z,100314.88
2023-04-14T00:42:09.109Z,100311.41
2023-04-14T00:42:31.872Z,100321.22
2023-04-14T00:42:54.722Z,100315.00
2023-04-14T00:43:18.169Z,100316.72
2023-04-14T00:43:41.145Z,100320.25
2023-04-14T00:44:03.090Z,100316.72
2023-04-14T00:44:26.333Z,100320.38
2023-04-14T00:44:49.017Z,100316.06
2023-04-14T00:45:11.741Z,100324.03
2023-04-14T00:45:41.192Z,100323.97
2023-04-14T00:46:04.028Z,100320.44
2023-04-14T00:46:28.616Z,100329.22
2023-04-14T00:46:51.615Z,100328.25
2023-04-14T00:47:13.518Z,100327.38
2023-04-14T00:47:35.293Z,100330.84
2023-04-14T00:47:59.385Z,100329.97
2023-04-14T00:48:21.237Z,100309.25
2023-04-14T00:48:42.965Z,100332.53
2023-04-14T00:49:04.912Z,100329.97
2023-04-14T00:49:30.648Z,100329.00
2023-04-14T00:49:53.459Z,100326.44
2023-04-14T00:50:18.285Z,100325.53
2023-04-14T00:50:40.549Z,100333.50
2023-04-14T00:51:03.765Z,100327.22
2023-04-14T00:51:28.126Z,100333.34
2023-04-14T00:51:50.423Z,100328.09
2023-04-14T00:52:12.555Z,100326.34
2023-04-14T00:52:34.252Z,100328.09
2023-04-14T00:52:57.537Z,100336.16
2023-04-14T00:53:20.076Z,100333.41
2023-04-14T00:53:42.531Z,100335.19
2023-04-14T00:54:07.047Z,100333.56
2023-04-14T00:54:31.167Z,100332.69
2023-04-14T00:54:54.185Z,100338.00
2023-04-14T00:55:19.991Z,100334.53
2023-04-14T00:55:42.064Z,100338.97
2023-04-14T00:56:05.338Z,100335.47
2023-04-14T00:56:27.872Z,100334.53
2023-04-14T00:56:50.372Z,100344.28
2023-04-14T00:57:12.101Z,100338.97
2023-04-14T00:57:35.341Z,100338.94
2023-04-14T00:57:57.190Z,100342.44
2023-04-14T00:58:19.854Z,100346.91
2023-04-14T00:58:43.030Z,100349.63
2023-04-14T00:59:08.209Z,100342.50
2023-04-14T00:59:30.244Z,100344.25
2023-04-14T00:59:52.686Z,100344.19
2023-04-14T01:00:15.907Z,100338.88
2023-04-14T01:00:38.818Z,100342.50
2023-04-14T01:01:01.812Z,100344.38
2023-04-14T01:01:24.868Z,100347.03
2023-04-14T01:01:47.080Z,100346.16
2023-04-14T01:02:08.957Z,100345.31
2023-04-14T01:02:34.087Z,100321.91
2023-04-14T01:02:56.227Z,100343.31
2023-04-14T01:03:18.182Z,100346.03
2023-04-14T01:03:40.913Z,100343.31
2023-04-14T01:04:04.508Z,100351.28
2023-04-14T01:04:36.688Z,100345.06
2023-04-14T01:05:07.317Z,100345.16
2023-04-14T01:05:30.541Z,100342.44
2023-04-14T01:05:52.425Z,100336.41
2023-04-14T01:06:14.122Z,100339.94
2023-04-14T01:06:36.591Z,100346.22
2023-04-14T01:06:58.349Z,100324.50
2023-04-14T01:07:22.642Z,100337.38
2023-04-14T01:07:44.737Z,100340.03
2023-04-14T01:08:06.550Z,100342.69
2023-04-14T01:08:29.043Z,100351.59
2023-04-14T01:08:52.007Z,100351.72
2023-04-14T01:09:15.857Z,100349.06
2023-04-14T01:09:37.644Z,100343.03
2023-04-14T01:10:01.220Z,100351.06
2023-04-14T01:10:32.658Z,100344.06
2023-04-14T01:11:09.764Z,100349.47
2023-04-14T01:11:37.267Z,100351.06
2023-04-14T01:12:04.712Z,100354.44
2023-04-14T01:12:44.468Z,100348.34
2023-04-14T01:13:21.099Z,100357.03
2023-04-14T01:13:53.861Z,100348.41
2023-04-14T01:14:24.736Z,100349.22
2023-04-14T01:14:55.132Z,100357.19
2023-04-14T01:15:27.475Z,100320.66
2023-04-14T01:15:57.482Z,100352.03
2023-04-14T01:16:27.275Z,100355.47
2023-04-14T01:16:54.510Z,100361.50
2023-04-14T01:17:22.806Z,100327.03
2023-04-14T01:17:49.799Z,100359.19
2023-04-14T01:18:20.353Z,100353.03
2023-04-14T01:18:52.068Z,100354.19
2023-04-14T01:19:34.895Z,100334.41
2023-04-14T01:20:19.030Z,100352.44
2023-04-14T01:20:42.501Z,100349.72
2023-04-14T01:21:09.918Z,100351.44
2023-04-14T01:21:38.300Z,100348.88
2023-04-14T01:22:05.656Z,100350.66
2023-04-14T01:22:31.273Z,100353.19
2023-04-14T01:22:59.644Z,100355.03
2023-04-14T01:23:25.793Z,100350.84
2023-04-14T01:24:47.117Z,100353.41
2023-04-14T01:25:56.846Z,100355.34
2023-04-14T01:26:22.856Z,100358.13
2023-04-14T01:26:45.724Z,100355.53
2023-04-14T01:27:23.693Z,100360.97
2023-04-14T01:27:57.186Z,100361.91
2023-04-14T01:28:38.459Z,100363.28
2023-04-14T01:29:24.779Z,100363.53
2023-04-14T01:30:00.565Z,100361.22
2023-04-14T01:30:36.390Z,100362.25
2023-04-14T01:31:10.117Z,100360.47
2023-04-14T01:31:41.267Z,100364.13
2023-04-14T01:32:06.565Z,100361.63
2023-04-14T01:32:34.770Z,100354.94
2023-04-14T01:33:04.285Z,100367.22
2023-04-14T01:33:31.012Z,100374.41
2023-04-14T01:33:57.828Z,100364.00
2023-04-14T01:34:30.483Z,100369.88
2023-04-14T01:34:55.899Z,100361.03
2023-04-14T01:35:23.870Z,100371.25
2023-04-14T01:35:51.651Z,100369.41
2023-04-14T01:36:18.904Z,100367.69
2023-04-14T01:36:44.102Z,100366.75
2023-04-14T01:37:12.582Z,100366.00
2023-04-14T01:37:39.297Z,100370.38
2023-04-14T01:38:08.635Z,100366.03
2023-04-14T01:38:34.288Z,100365.22
2023-04-14T01:38:57.757Z,100361.50
2023-04-14T01:39:24.512Z,100360.69
2023-04-14T01:39:52.343Z,100365.03
2023-04-14T01:40:18.359Z,100367.78
2023-04-14T01:40:43.040Z,100367.91
2023-04-14T01:41:09.299Z,100369.56
2023-04-14T01:41:33.045Z,100366.03
2023-04-14T01:41:58.124Z,100362.59
2023-04-14T01:42:25.135Z,100341.81
2023-04-14T01:42:53.007Z,100365.13
2023-04-14T01:43:17.632Z,100357.16
2023-04-14T01:43:43.455Z,100359.81
2023-04-14T01:44:07.201Z,100366.13
2023-04-14T01:44:31.242Z,100367.78
2023-04-14T01:45:05.110Z,100363.38
2023-04-14T01:45:28.907Z,100364.38
2023-04-14T01:45:52.536Z,100358.34
2023-04-14T01:46:18.707Z,100362.84
2023-04-14T01:46:41.768Z,100362.94
2023-04-14T01:47:07.724Z,100367.53
2023-04-14T01:47:30.977Z,100357.72
2023-04-14T01:47:55.380Z,100357.72
2023-04-14T01:48:19.389Z,100360.38
2023-04-14T01:48:41.552Z,100360.44
2023-04-14T01:49:04.162Z,100365.09
2023-04-14T01:49:27.974Z,100344.97
2023-04-14T01:49:53.661Z,100364.06
2023-04-14T01:50:17.742Z,100365.81
2023-04-14T01:50:42.059Z,100357.72
2023-04-14T01:51:05.953Z,100363.38
2023-04-14T01:51:30.983Z,100366.00
2023-04-14T01:51:55.397Z,100358.97
2023-04-14T01:52:19.061Z,100367.88
2023-04-14T01:52:44.479Z,100363.44
2023-04-14T01:53:08.906Z,100367.84
2023-04-14T01:53:32.796Z,100359.84
2023-04-14T01:53:57.394Z,100365.09
2023-04-14T01:54:21.787Z,100369.50
2023-04-14T01:54:47.997Z,100362.44
2023-04-14T01:55:11.521Z,100370.41
2023-04-14T01:55:38.793Z,100353.75
2023-04-14T01:56:01.695Z,100352.84
2023-04-14T01:56:26.649Z,100365.19
2023-04-14T01:56:50.535Z,100363.38
2023-04-14T01:57:14.559Z,100354.78
2023-04-14T01:57:39.298Z,100365.25
2023-04-14T01:58:02.455Z,100362.59
2023-04-14T01:58:28.602Z,100360.72
2023-04-14T01:58:53.236Z,100359.84
2023-04-14T01:59:17.664Z,100359.84
2023-04-14T01:59:41.574Z,100364.28
2023-04-14T02:00:09.970Z,100365.06
2023-04-14T02:00:41.637Z,100362.28
2023-04-14T02:01:06.215Z,100362.25
2023-04-14T02:01:31.390Z,100358.75
2023-04-14T02:01:53.343Z,100356.22
2023-04-14T02:02:17.508Z,100366.75
2023-04-14T02:02:42.771Z,100364.06
2023-04-14T02:03:06.250Z,100365.94
2023-04-14T02:03:29.763Z,100367.03
2023-04-14T02:03:51.624Z,100366.19
2023-04-14T02:04:15.880Z,100359.97
2023-04-14T02:04:41.502Z,100363.53
2023-04-14T02:05:07.237Z,100371.41
2023-04-14T02:05:33.135Z,100369.63
2023-04-14T02:05:55.973Z,100361.63
2023-04-14T02:06:20.497Z,100364.50
2023-04-14T02:06:44.126Z,100370.75
2023-04-14T02:07:07.888Z,100358.31
2023-04-14T02:07:31.570Z,100366.19
2023-04-14T02:07:54.745Z,100361.84
2023-04-14T02:08:19.098Z,100367.94
2023-04-14T02:08:43.874Z,100372.31
2023-04-14T02:09:10.267Z,100370.53
2023-04-14T02:09:32.926Z,100361.84
2023-04-14T02:09:58.542Z,100367.88
2023-04-14T02:10:22.674Z,100355.81
2023-04-14T02:10:48.126Z,100369.66
2023-04-14T02:11:12.900Z,100370.59
2023-04-14T02:11:35.923Z,100367.94
2023-04-14T02:12:00.711Z,100367.88
2023-04-14T02:12:24.554Z,100372.31
2023-04-14T02:12:48.205Z,100367.84
2023-04-14T02:13:13.321Z,100362.91
2023-04-14T02:13:36.982Z,100372.44
2023-04-14T02:14:00.598Z,100367.94
2023-04-14T02:14:23.724Z,100376.94
2023-04-14T02:14:46.696Z,100372.50
2023-04-14T02:15:13.625Z,100369.72
2023-04-14T02:15:36.000Z,100371.50
2023-04-14T02:16:00.751Z,100369.66
2023-04-14T02:16:24.825Z,100362.53
2023-04-14T02:16:49.516Z,100362.78
2023-04-14T02:17:12.330Z,100374.06
2023-04-14T02:17:35.901Z,100371.31
2023-04-14T02:17:58.868Z,100370.41
2023-04-14T02:18:23.044Z,100373.06
2023-04-14T02:18:46.502Z,100367.72
2023-04-14T02:19:09.080Z,100374.72
2023-04-14T02:19:34.072Z,100376.53
2023-04-14T02:19:59.561Z,100370.28
2023-04-14T02:20:21.916Z,100373.94
2023-04-14T02:20:46.894Z,100362.44
2023-04-14T02:21:10.168Z,100370.38
2023-04-14T02:21:34.624Z,100363.28
2023-04-14T02:21:58.687Z,100367.75
2023-04-14T02:22:20.749Z,100372.94
2023-04-14T02:22:42.959Z,100363.16
2023-04-14T02:23:05.596Z,100365.84
2023-04-14T02:23:28.202Z,100374.63
2023-04-14T02:23:51.344Z,100362.59
2023-04-14T02:24:12.934Z,100334.59
2023-04-14T02:24:34.659Z,100363.97
2023-04-14T02:24:57.787Z,100370.13
2023-04-14T02:25:23.358Z,100373.66
2023-04-14T02:25:51.093Z,100364.06
2023-04-14T02:26:16.153Z,100368.47
2023-04-14T02:26:42.765Z,100368.41
2023-04-14T02:27:08.784Z,100371.00
2023-04-14T02:27:36.038Z,100360.38
2023-04-14T02:28:02.337Z,100367.34
2023-04-14T02:28:30.180Z,100367.34
2023-04-14T02:29:01.064Z,100368.06
2023-04-14T02:29:26.104Z,100359.38
2023-04-14T02:29:53.415Z,100368.06
2023-04-14T02:30:21.544Z,100360.13
2023-04-14T02:30:49.334Z,100364.56
2023-04-14T02:31:16.701Z,100365.44
2023-04-14T02:31:43.426Z,100369.91
2023-04-14T02:32:11.354Z,100366.47
2023-04-14T02:32:35.760Z,100371.81
2023-04-14T02:33:02.011Z,100370.06
2023-04-14T02:33:31.497Z,100357.44
2023-04-14T02:33:57.417Z,100367.75
2023-04-14T02:34:25.266Z,100351.31
2023-04-14T02:34:52.418Z,100372.53
2023-04-14T02:35:18.443Z,100369.25
2023-04-14T02:35:46.986Z,100370.88
2023-04-14T02:36:17.117Z,100368.25
2023-04-14T02:36:42.544Z,100376.94
2023-04-14T02:37:14.284Z,100376.94
2023-04-14T02:37:40.934Z,100372.38
2023-04-14T02:38:08.245Z,100371.34
2023-04-14T02:38:35.923Z,100373.09
2023-04-14T02:39:02.482Z,100366.97
2023-04-14T02:39:31.709Z,100372.28
2023-04-14T02:40:01.847Z,100367.06
2023-04-14T02:40:28.030Z,100361.88
2023-04-14T02:40:50.771Z,100371.50
2023-04-14T02:41:20.192Z,100359.94
2023-04-14T02:41:46.246Z,100368.75
2023-04-14T02:42:13.680Z,100366.34
2023-04-14T02:42:40.991Z,100367.22
2023-04-14T02:43:07.415Z,100368.13
2023-04-14T02:43:33.197Z,100368.13
2023-04-14T02:44:05.141Z,100362.00
2023-04-14T02:44:31.073Z,100368.25
2023-04-14T02:45:01.202Z,100359.47
2023-04-14T02:45:26.181Z,100368.44
2023-04-14T02:45:50.775Z,100368.44
2023-04-14T02:46:16.413Z,100364.03
2023-04-14T02:46:43.632Z,100359.59
2023-04-14T02:47:10.181Z,100364.00
2023-04-14T02:47:40.436Z,100363.13
2023-04-14T02:48:08.586Z,100361.34
2023-04-14T02:48:34.646Z,100360.47
2023-04-14T02:49:01.739Z,100360.44
2023-04-14T02:49:26.199Z,100364.00
2023-04-14T02:49:50.506Z,100363.00
2023-04-14T02:50:18.277Z,100368.38
2023-04-14T02:50:53.620Z,100366.47
2023-04-14T02:51:21.124Z,100359.41
2023-04-14T02:51:45.792Z,100360.25
2023-04-14T02:52:11.729Z,100362.03
2023-04-14T02:52:35.430Z,100361.13
2023-04-14T02:52:59.611Z,100277.06
2023-04-14T02:53:26.914Z,100362.09
2023-04-14T02:54:00.032Z,100349.75
2023-04-14T02:54:35.851Z,100361.88
2023-04-14T02:54:59.117Z,100359.28
2023-04-14T02:55:23.697Z,100363.66
2023-04-14T02:55:51.408Z,100323.63
2023-04-14T02:56:14.227Z,100358.22
2023-04-14T02:56:39.105Z,100366.28
2023-04-14T02:57:02.882Z,100355.69
2023-04-14T02:57:27.656Z,100362.78
2023-04-14T02:57:50.443Z,100359.41
2023-04-14T02:58:14.081Z,100355.69
2023-04-14T02:58:37.967Z,100360.13
2023-04-14T02:59:00.612Z,100354.88
2023-04-14T02:59:24.822Z,100364.50
2023-04-14T02:59:56.003Z,100360.09
2023-04-14T03:00:18.898Z,100359.22
2023-04-14T03:00:45.038Z,100361.00
2023-04-14T03:01:07.836Z,100355.00
2023-04-14T03:01:33.138Z,100363.72
2023-04-14T03:01:57.560Z,100365.44
2023-04-14T03:02:24.983Z,100360.97
2023-04-14T03:02:58.988Z,100359.22
2023-04-14T03:03:21.252Z,100368.84
2023-04-14T03:03:43.883Z,100362.63
2023-04-14T03:04:08.235Z,100363.38
2023-04-14T03:04:31.649Z,100369.59
2023-04-14T03:04:57.109Z,100367.84
2023-04-14T03:05:29.687Z,100365.19
2023-04-14T03:06:00.164Z,100364.31
2023-04-14T03:06:24.419Z,100366.94
2023-04-14T03:06:47.810Z,100372.19
2023-04-14T03:07:11.961Z,100371.31
2023-04-14T03:07:34.688Z,100366.00
2023-04-14T03:07:57.044Z,100370.47
2023-04-14T03:08:20.404Z,100361.06
2023-04-14T03:08:47.459Z,100353.22
2023-04-14T03:09:09.559Z,100375.84
2023-04-14T03:09:32.236Z,100367.81
2023-04-14T03:09:56.421Z,100369.59
2023-04-14T03:10:20.002Z,100377.53
2023-04-14T03:10:45.364Z,100367.03
2023-04-14T03:11:08.885Z,100372.25
2023-04-14T03:11:33.207Z,100369.59
2023-04-14T03:11:55.957Z,100373.03
2023-04-14T03:12:19.172Z,100376.53
2023-04-14T03:12:43.137Z,100369.38
2023-04-14T03:13:08.782Z,100374.59
2023-04-14T03:13:33.909Z,100379.91
2023-04-14T03:13:57.555Z,100378.03
2023-04-14T03:14:22.725Z,100370.03
2023-04-14T03:14:44.879Z,100375.34
2023-04-14T03:15:08.130Z,100373.56
2023-04-14T03:15:31.657Z,100370.03
2023-04-14T03:15:55.048Z,100369.16
2023-04-14T03:16:20.290Z,100374.50
2023-04-14T03:16:42.707Z,100378.03
2023-04-14T03:17:05.709Z,100371.81
2023-04-14T03:17:30.904Z,100369.03
2023-04-14T03:17:55.842Z,100377.00
2023-04-14T03:18:19.821Z,100373.47
2023-04-14T03:18:42.468Z,100375.28
2023-04-14T03:19:07.861Z,100375.34
2023-04-14T03:19:32.205Z,100377.16
2023-04-14T03:19:54.622Z,100377.25
2023-04-14T03:20:20.134Z,100376.41
2023-04-14T03:20:45.306Z,100379.94
2023-04-14T03:21:07.692Z,100350.41
2023-04-14T03:21:30.797Z,100377.16
2023-04-14T03:21:55.288Z,100361.53
2023-04-14T03:22:20.636Z,100372.84
2023-04-14T03:22:44.141Z,100370.25
2023-04-14T03:23:13.934Z,100376.41
2023-04-14T03:23:42.741Z,100370.19
2023-04-14T03:24:06.600Z,100371.00
2023-04-14T03:24:31.541Z,100370.19
2023-04-14T03:24:58.611Z,100374.50
2023-04-14T03:25:22.812Z,100371.94
2023-04-14T03:25:47.529Z,100368.63
2023-04-14T03:26:19.137Z,100372.72
2023-04-14T03:26:43.281Z,100373.75
2023-04-14T03:27:09.330Z,100378.03
2023-04-14T03:27:33.950Z,100374.72
2023-04-14T03:28:02.579Z,100363.38
2023-04-14T03:28:29.148Z,100379.13
2023-04-14T03:28:55.852Z,100374.69
2023-04-14T03:29:21.596Z,100374.47
2023-04-14T03:29:47.620Z,100346.13
2023-04-14T03:30:14.833Z,100371.94
2023-04-14T03:30:42.355Z,100369.63
2023-04-14T03:31:07.788Z,100378.38
2023-04-14T03:31:47.030Z,100382.75
2023-04-14T03:32:11.151Z,100377.53
2023-04-14T03:32:43.420Z,100375.81
2023-04-14T03:33:11.870Z,100374.16
2023-04-14T03:33:34.050Z,100374.06
2023-04-14T03:33:58.426Z,100375.91
2023-04-14T03:34:30.914Z,100378.63
2023-04-14T03:34:56.822Z,100380.44
2023-04-14T03:35:21.852Z,100375.09
2023-04-14T03:35:45.639Z,100380.44
2023-04-14T03:36:09.645Z,100385.72
2023-04-14T03:36:32.870Z,100383.06
2023-04-14T03:36:57.162Z,100386.63
2023-04-14T03:37:24.407Z,100380.28
2023-04-14T03:37:49.576Z,100383.81
2023-04-14T03:38:12.801Z,100385.59
2023-04-14T03:38:36.948Z,100388.19
2023-04-14T03:39:02.020Z,100389.91
2023-04-14T03:39:31.746Z,100387.25
2023-04-14T03:39:58.690Z,100386.50
2023-04-14T03:40:22.145Z,100385.56
2023-04-14T03:40:47.786Z,100382.09
2023-04-14T03:41:15.819Z,100392.81
2023-04-14T03:41:39.653Z,100384.88
2023-04-14T03:42:03.422Z,100390.22
2023-04-14T03:42:28.715Z,100387.69
2023-04-14T03:42:52.406Z,100381.47
2023-04-14T03:43:20.023Z,100390.34
2023-04-14T03:43:42.820Z,100392.19
2023-04-14T03:44:15.480Z,100387.91
2023-04-14T03:44:43.004Z,100382.63
2023-04-14T03:45:05.464Z,100380.81
2023-04-14T03:45:30.021Z,100387.00
2023-04-14T03:45:52.380Z,100382.56
2023-04-14T03:46:15.881Z,100385.22
2023-04-14T03:46:41.017Z,100381.69
2023-04-14T03:47:04.070Z,100381.56
2023-04-14T03:47:28.668Z,100378.00
2023-04-14T03:48:05.103Z,100386.94
2023-04-14T03:48:35.793Z,100383.44
2023-04-14T03:48:59.539Z,100371.41
2023-04-14T03:49:26.502Z,100380.81
2023-04-14T03:49:52.048Z,100389.53
2023-04-14T03:50:16.364Z,100384.31
2023-04-14T03:50:42.041Z,100387.91
2023-04-14T03:51:09.017Z,100389.75
2023-04-14T03:51:33.051Z,100387.94
2023-04-14T03:51:59.609Z,100392.34
2023-04-14T03:52:23.652Z,100398.50
2023-04-14T03:52:47.860Z,100395.88
2023-04-14T03:53:12.600Z,100391.53
2023-04-14T03:53:36.484Z,100393.38
2023-04-14T03:54:00.686Z,100388.97
2023-04-14T03:54:25.580Z,100394.34
2023-04-14T03:54:48.098Z,100372.47
2023-04-14T03:55:12.467Z,100394.28
2023-04-14T03:55:37.701Z,100395.13
2023-04-14T03:55:59.965Z,100381.13
2023-04-14T03:56:22.915Z,100391.53
2023-04-14T03:56:48.217Z,100395.91
2023-04-14T03:57:14.672Z,100388.06
2023-04-14T03:57:39.838Z,100386.31
2023-04-14T03:58:03.137Z,100388.38
2023-04-14T03:58:26.933Z,100391.63
2023-04-14T03:58:52.509Z,100388.19
2023-04-14T03:59:17.947Z,100396.22
2023-04-14T03:59:41.727Z,100366.78
2023-04-14T04:00:08.391Z,100389.28
2023-04-14T04:00:39.084Z,100390.91
2023-04-14T04:01:02.837Z,100385.63
2023-04-14T04:01:26.823Z,100394.41
2023-04-14T04:01:49.589Z,100396.19
2023-04-14T04:02:13.902Z,100393.53
2023-04-14T04:02:37.367Z,100393.53
2023-04-14T04:03:02.642Z,100396.94
2023-04-14T04:03:26.867Z,100394.25
2023-04-14T04:03:50.040Z,100396.03
2023-04-14T04:04:12.648Z,100397.75
2023-04-14T04:04:37.362Z,100390.84
2023-04-14T04:04:59.930Z,100396.13
2023-04-14T04:05:23.547Z,100395.16
2023-04-14T04:05:45.969Z,100400.41
2023-04-14T04:06:08.480Z,100397.81
2023-04-14T04:06:31.564Z,100394.34
2023-04-14T04:06:54.749Z,100397.06
2023-04-14T04:07:19.352Z,100399.59
2023-04-14T04:07:41.716Z,100398.84
2023-04-14T04:08:05.137Z,100399.00
2023-04-14T04:08:28.235Z,100391.16
2023-04-14T04:08:51.226Z,100395.44
2023-04-14T04:09:14.685Z,100400.63
2023-04-14T04:09:38.058Z,100403.25
2023-04-14T04:10:00.563Z,100401.47
2023-04-14T04:10:23.569Z,100397.91
2023-04-14T04:10:48.415Z,100401.53
2023-04-14T04:11:13.217Z,100391.03
2023-04-14T04:11:35.814Z,100398.06
2023-04-14T04:12:02.099Z,100403.44
2023-04-14T04:12:28.013Z,100393.00
2023-04-14T04:12:50.543Z,100402.66
2023-04-14T04:13:16.382Z,100400.94
2023-04-14T04:13:41.884Z,100400.94
2023-04-14T04:14:06.980Z,100400.06
2023-04-14T04:14:32.815Z,100390.72
2023-04-14T04:14:54.868Z,100405.47
2023-04-14T04:15:17.378Z,100407.16
2023-04-14T04:15:41.533Z,100402.13
2023-04-14T04:16:08.861Z,100411.66
2023-04-14T04:16:31.974Z,100407.34
2023-04-14T04:16:59.488Z,100409.03
2023-04-14T04:17:24.741Z,100404.59
2023-04-14T04:17:48.920Z,100415.53
2023-04-14T04:18:16.611Z,100406.22
2023-04-14T04:18:39.568Z,100413.16
2023-04-14T04:19:07.462Z,100410.44
2023-04-14T04:19:31.064Z,100413.09
2023-04-14T04:19:56.797Z,100412.22
2023-04-14T04:20:21.124Z,100413.06
2023-04-14T04:20:46.119Z,100412.22
2023-04-14T04:21:10.300Z,100411.31
2023-04-14T04:21:35.048Z,100410.66
2023-04-14T04:21:59.794Z,100417.53
2023-04-14T04:22:27.320Z,100411.38
2023-04-14T04:22:52.039Z,100411.31
2023-04-14T04:23:17.864Z,100411.38
2023-04-14T04:23:41.889Z,100411.22
2023-04-14T04:24:07.128Z,100415.59
2023-04-14T04:24:32.917Z,100381.72
2023-04-14T04:24:56.068Z,100412.19
2023-04-14T04:25:22.468Z,100407.16
2023-04-14T04:25:57.425Z,100408.16
2023-04-14T04:26:26.288Z,100396.22
2023-04-14T04:26:48.920Z,100407.34
2023-04-14T04:27:24.459Z,100415.34
2023-04-14T04:27:51.161Z,100414.56
2023-04-14T04:28:13.235Z,100401.31
2023-04-14T04:28:36.587Z,100408.47
2023-04-14T04:28:58.823Z,100405.06
2023-04-14T04:29:23.857Z,100409.09
2023-04-14T04:29:48.004Z,100402.09
2023-04-14T04:30:12.308Z,100405.50
2023-04-14T04:30:35.323Z,100409.91
2023-04-14T04:30:59.066Z,100408.03
2023-04-14T04:31:23.636Z,100406.38
2023-04-14T04:31:45.707Z,100413.41
2023-04-14T04:32:08.526Z,100409.84
2023-04-14T04:32:30.358Z,100411.56
2023-04-14T04:32:55.599Z,100407.19
2023-04-14T04:33:20.186Z,100408.13
2023-04-14T04:33:44.266Z,100404.47
2023-04-14T04:34:07.735Z,100400.81
2023-04-14T04:34:34.558Z,100411.38
2023-04-14T04:34:58.507Z,100406.09
2023-04-14T04:35:23.095Z,100404.16
2023-04-14T04:35:46.115Z,100406.81
2023-04-14T04:36:08.432Z,100409.47
2023-04-14T04:36:37.003Z,100394.41
2023-04-14T04:37:00.710Z,100399.72
2023-04-14T04:37:28.173Z,100412.88
2023-04-14T04:37:51.526Z,100400.50
2023-04-14T04:38:13.381Z,100410.19
2023-04-14T04:38:39.409Z,100403.19
2023-04-14T04:39:01.287Z,100412.94
2023-04-14T04:39:25.446Z,100395.31
2023-04-14T04:39:48.466Z,100396.31
2023-04-14T04:40:13.182Z,100401.56
2023-04-14T04:40:38.819Z,100399.03
2023-04-14T04:41:06.587Z,100408.47
2023-04-14T04:41:30.644Z,100411.09
2023-04-14T04:42:02.173Z,100396.16
2023-04-14T04:42:23.831Z,100411.91
2023-04-14T04:42:45.667Z,100412.72
2023-04-14T04:43:11.554Z,100411.81
2023-04-14T04:43:33.238Z,100409.16
2023-04-14T04:43:56.895Z,100405.72
2023-04-14T04:44:18.647Z,100416.19
2023-04-14T04:44:41.560Z,100411.81
2023-04-14T04:45:04.052Z,100413.50
2023-04-14T04:45:45.278Z,100412.66
2023-04-14T04:46:33.203Z,100411.81
2023-04-14T04:46:55.996Z,100411.00
2023-04-14T04:47:20.670Z,100411.13
2023-04-14T04:47:43.316Z,100408.47
2023-04-14T04:48:05.625Z,100412.94
2023-04-14T04:48:29.339Z,100414.75